sensor_id;sensor_type;location;lat;lon;timestamp;P1;durP1;ratioP1;P2;durP2;ratioP2
61617;SDS011;47518;51.776;9.370;2023-03-01T00:01:42;20.53;;;13.17;;
61617;SDS011;47518;51.776;9.370;2023-03-01T00:04:07;20.53;;;13.40;;
61617;SDS011;47518;51.776;9.370;2023-03-01T00:06:36;18.90;;;13.33;;
61617;SDS011;47518;51.776;9.370;2023-03-01T00:09:02;19.00;;;13.30;;
61617;SDS011;47518;51.776;9.370;2023-03-01T00:11:30;18.00;;;12.87;;
61617;SDS011;47518;51.776;9.370;2023-03-01T00:13:58;17.73;;;12.80;;
61617;SDS011;47518;51.776;9.370;2023-03-01T00:16:28;16.93;;;12.07;;
61617;SDS011;47518;51.776;9.370;2023-03-01T00:19:04;18.70;;;12.57;;
61617;SDS011;47518;51.776;9.370;2023-03-01T00:21:31;19.33;;;11.70;;
61617;SDS011;47518;51.776;9.370;2023-03-01T00:24:00;18.35;;;11.98;;
61617;SDS011;47518;51.776;9.370;2023-03-01T00:26:26;17.27;;;11.80;;
61617;SDS011;47518;51.776;9.370;2023-03-01T00:28:52;18.13;;;12.30;;
61617;SDS011;47518;51.776;9.370;2023-03-01T00:31:27;19.60;;;12.77;;
61617;SDS011;47518;51.776;9.370;2023-03-01T00:33:56;21.73;;;12.23;;
61617;SDS011;47518;51.776;9.370;2023-03-01T00:36:24;19.20;;;12.83;;
61617;SDS011;47518;51.776;9.370;2023-03-01T00:38:55;21.97;;;14.50;;
61617;SDS011;47518;51.776;9.370;2023-03-01T00:41:21;20.30;;;14.30;;
61617;SDS011;47518;51.776;9.370;2023-03-01T00:43:47;21.63;;;13.47;;
61617;SDS011;47518;51.776;9.370;2023-03-01T00:46:18;21.17;;;12.83;;
61617;SDS011;47518;51.776;9.370;2023-03-01T00:48:45;17.90;;;12.53;;
61617;SDS011;47518;51.776;9.370;2023-03-01T00:51:19;19.03;;;12.40;;
61617;SDS011;47518;51.776;9.370;2023-03-01T00:53:47;17.50;;;11.93;;
61617;SDS011;47518;51.776;9.370;2023-03-01T00:56:16;17.77;;;12.17;;
61617;SDS011;47518;51.776;9.370;2023-03-01T00:58:41;16.73;;;11.63;;
61617;SDS011;47518;51.776;9.370;2023-03-01T01:01:11;17.07;;;12.30;;
61617;SDS011;47518;51.776;9.370;2023-03-01T01:03:44;18.67;;;12.97;;
61617;SDS011;47518;51.776;9.370;2023-03-01T01:06:20;20.17;;;12.90;;
61617;SDS011;47518;51.776;9.370;2023-03-01T01:09:22;17.27;;;12.63;;
61617;SDS011;47518;51.776;9.370;2023-03-01T01:11:50;17.80;;;12.03;;
61617;SDS011;47518;51.776;9.370;2023-03-01T01:14:17;17.23;;;12.73;;
61617;SDS011;47518;51.776;9.370;2023-03-01T01:16:55;17.53;;;13.00;;
61617;SDS011;47518;51.776;9.370;2023-03-01T01:19:21;18.73;;;12.70;;
61617;SDS011;47518;51.776;9.370;2023-03-01T01:21:48;18.37;;;12.93;;
61617;SDS011;47518;51.776;9.370;2023-03-01T01:24:14;18.63;;;12.93;;
61617;SDS011;47518;51.776;9.370;2023-03-01T01:26:43;17.37;;;12.33;;
61617;SDS011;47518;51.776;9.370;2023-03-01T01:29:11;17.45;;;12.82;;
61617;SDS011;47518;51.776;9.370;2023-03-01T01:31:40;19.87;;;12.53;;
61617;SDS011;47518;51.776;9.370;2023-03-01T01:34:08;18.03;;;12.30;;
61617;SDS011;47518;51.776;9.370;2023-03-01T01:39:35;17.87;;;12.80;;
61617;SDS011;47518;51.776;9.370;2023-03-01T01:42:03;18.67;;;12.87;;
61617;SDS011;47518;51.776;9.370;2023-03-01T01:44:29;20.13;;;14.30;;
61617;SDS011;47518;51.776;9.370;2023-03-01T01:47:04;18.93;;;13.27;;
61617;SDS011;47518;51.776;9.370;2023-03-01T01:49:38;18.90;;;13.07;;
61617;SDS011;47518;51.776;9.370;2023-03-01T01:52:12;17.23;;;12.73;;
61617;SDS011;47518;51.776;9.370;2023-03-01T01:54:44;19.30;;;12.90;;
61617;SDS011;47518;51.776;9.370;2023-03-01T01:57:19;19.30;;;12.63;;
61617;SDS011;47518;51.776;9.370;2023-03-01T01:59:50;17.70;;;12.82;;
61617;SDS011;47518;51.776;9.370;2023-03-01T02:02:19;17.67;;;12.80;;
61617;SDS011;47518;51.776;9.370;2023-03-01T02:04:46;17.87;;;12.70;;
61617;SDS011;47518;51.776;9.370;2023-03-01T02:07:17;20.30;;;11.97;;
61617;SDS011;47518;51.776;9.370;2023-03-01T02:09:47;17.83;;;12.00;;
61617;SDS011;47518;51.776;9.370;2023-03-01T02:12:15;15.67;;;11.03;;
61617;SDS011;47518;51.776;9.370;2023-03-01T02:14:43;16.40;;;11.30;;
61617;SDS011;47518;51.776;9.370;2023-03-01T02:17:11;17.13;;;11.97;;
61617;SDS011;47518;51.776;9.370;2023-03-01T02:20:03;16.70;;;11.37;;
61617;SDS011;47518;51.776;9.370;2023-03-01T02:22:38;17.13;;;11.70;;
61617;SDS011;47518;51.776;9.370;2023-03-01T02:25:11;16.10;;;11.27;;
61617;SDS011;47518;51.776;9.370;2023-03-01T02:49:27;20.67;;;12.30;;
61617;SDS011;47518;51.776;9.370;2023-03-01T03:07:39;22.63;;;13.07;;
61617;SDS011;47518;51.776;9.370;2023-03-01T03:10:25;19.67;;;13.43;;
61617;SDS011;47518;51.776;9.370;2023-03-01T03:13:10;17.93;;;12.67;;
61617;SDS011;47518;51.776;9.370;2023-03-01T03:15:38;18.03;;;12.60;;
61617;SDS011;47518;51.776;9.370;2023-03-01T03:18:05;18.47;;;11.67;;
61617;SDS011;47518;51.776;9.370;2023-03-01T03:20:32;18.53;;;12.23;;
61617;SDS011;47518;51.776;9.370;2023-03-01T03:22:59;16.57;;;11.73;;
61617;SDS011;47518;51.776;9.370;2023-03-01T03:25:26;17.90;;;11.73;;
61617;SDS011;47518;51.776;9.370;2023-03-01T03:27:56;17.37;;;12.03;;
61617;SDS011;47518;51.776;9.370;2023-03-01T03:30:24;16.97;;;11.60;;
61617;SDS011;47518;51.776;9.370;2023-03-01T03:32:54;16.77;;;11.07;;
61617;SDS011;47518;51.776;9.370;2023-03-01T03:35:23;16.53;;;11.27;;
61617;SDS011;47518;51.776;9.370;2023-03-01T03:37:55;16.70;;;11.43;;
61617;SDS011;47518;51.776;9.370;2023-03-01T03:40:36;16.10;;;11.70;;
61617;SDS011;47518;51.776;9.370;2023-03-01T03:43:04;16.13;;;10.80;;
61617;SDS011;47518;51.776;9.370;2023-03-01T03:45:31;16.67;;;11.20;;
61617;SDS011;47518;51.776;9.370;2023-03-01T03:47:58;15.13;;;11.17;;
61617;SDS011;47518;51.776;9.370;2023-03-01T03:50:25;15.80;;;11.13;;
61617;SDS011;47518;51.776;9.370;2023-03-01T03:52:51;15.83;;;11.20;;
61617;SDS011;47518;51.776;9.370;2023-03-01T03:55:16;16.33;;;11.07;;
61617;SDS011;47518;51.776;9.370;2023-03-01T03:57:44;14.50;;;10.83;;
61617;SDS011;47518;51.776;9.370;2023-03-01T04:00:16;16.10;;;11.00;;
61617;SDS011;47518;51.776;9.370;2023-03-01T04:02:44;17.80;;;12.30;;
61617;SDS011;47518;51.776;9.370;2023-03-01T04:05:11;16.93;;;11.90;;
61617;SDS011;47518;51.776;9.370;2023-03-01T04:07:38;16.83;;;12.20;;
61617;SDS011;47518;51.776;9.370;2023-03-01T04:10:05;24.33;;;13.90;;
61617;SDS011;47518;51.776;9.370;2023-03-01T04:12:34;23.03;;;14.80;;
61617;SDS011;47518;51.776;9.370;2023-03-01T04:15:00;22.17;;;14.97;;
61617;SDS011;47518;51.776;9.370;2023-03-01T04:17:37;19.47;;;13.30;;
61617;SDS011;47518;51.776;9.370;2023-03-01T04:20:05;18.73;;;12.27;;
61617;SDS011;47518;51.776;9.370;2023-03-01T04:22:31;16.93;;;11.20;;
61617;SDS011;47518;51.776;9.370;2023-03-01T04:24:58;15.87;;;10.63;;
61617;SDS011;47518;51.776;9.370;2023-03-01T04:27:27;24.43;;;14.63;;
61617;SDS011;47518;51.776;9.370;2023-03-01T04:29:52;21.00;;;13.57;;
61617;SDS011;47518;51.776;9.370;2023-03-01T04:32:18;19.33;;;13.60;;
61617;SDS011;47518;51.776;9.370;2023-03-01T04:34:43;23.80;;;14.30;;
61617;SDS011;47518;51.776;9.370;2023-03-01T04:37:09;18.50;;;13.80;;
61617;SDS011;47518;51.776;9.370;2023-03-01T04:39:35;17.03;;;12.10;;
61617;SDS011;47518;51.776;9.370;2023-03-01T04:42:10;18.63;;;12.57;;
61617;SDS011;47518;51.776;9.370;2023-03-01T04:44:39;17.03;;;12.10;;
61617;SDS011;47518;51.776;9.370;2023-03-01T04:47:05;17.07;;;11.53;;
61617;SDS011;47518;51.776;9.370;2023-03-01T04:49:34;17.37;;;11.67;;
61617;SDS011;47518;51.776;9.370;2023-03-01T04:51:59;17.43;;;11.83;;
61617;SDS011;47518;51.776;9.370;2023-03-01T04:54:30;16.83;;;11.50;;
61617;SDS011;47518;51.776;9.370;2023-03-01T04:56:57;16.27;;;11.47;;
61617;SDS011;47518;51.776;9.370;2023-03-01T04:59:25;17.83;;;11.80;;
61617;SDS011;47518;51.776;9.370;2023-03-01T05:01:52;19.53;;;11.53;;
61617;SDS011;47518;51.776;9.370;2023-03-01T05:04:20;23.43;;;11.97;;
61617;SDS011;47518;51.776;9.370;2023-03-01T05:06:48;19.87;;;12.40;;
61617;SDS011;47518;51.776;9.370;2023-03-01T05:09:20;19.47;;;11.57;;
61617;SDS011;47518;51.776;9.370;2023-03-01T05:11:48;18.70;;;12.17;;
61617;SDS011;47518;51.776;9.370;2023-03-01T05:14:16;18.63;;;12.07;;
61617;SDS011;47518;51.776;9.370;2023-03-01T05:16:42;16.63;;;11.67;;
61617;SDS011;47518;51.776;9.370;2023-03-01T05:19:14;18.53;;;11.90;;
61617;SDS011;47518;51.776;9.370;2023-03-01T05:21:40;18.57;;;12.00;;
61617;SDS011;47518;51.776;9.370;2023-03-01T05:24:28;17.90;;;12.53;;
61617;SDS011;47518;51.776;9.370;2023-03-01T05:26:57;19.50;;;12.13;;
61617;SDS011;47518;51.776;9.370;2023-03-01T05:29:31;25.03;;;12.43;;
61617;SDS011;47518;51.776;9.370;2023-03-01T05:31:59;20.37;;;12.77;;
61617;SDS011;47518;51.776;9.370;2023-03-01T05:34:28;22.77;;;12.37;;
61617;SDS011;47518;51.776;9.370;2023-03-01T05:37:09;21.13;;;12.30;;
61617;SDS011;47518;51.776;9.370;2023-03-01T05:39:34;20.87;;;12.23;;
61617;SDS011;47518;51.776;9.370;2023-03-01T05:42:01;21.73;;;12.20;;
61617;SDS011;47518;51.776;9.370;2023-03-01T05:44:27;20.87;;;12.57;;
61617;SDS011;47518;51.776;9.370;2023-03-01T05:47:00;21.07;;;13.00;;
61617;SDS011;47518;51.776;9.370;2023-03-01T05:49:26;21.37;;;13.17;;
61617;SDS011;47518;51.776;9.370;2023-03-01T05:51:51;23.90;;;13.50;;
61617;SDS011;47518;51.776;9.370;2023-03-01T05:54:19;24.70;;;14.00;;
61617;SDS011;47518;51.776;9.370;2023-03-01T05:56:48;23.60;;;13.07;;
61617;SDS011;47518;51.776;9.370;2023-03-01T05:59:19;18.87;;;13.37;;
61617;SDS011;47518;51.776;9.370;2023-03-01T06:01:44;25.07;;;13.83;;
61617;SDS011;47518;51.776;9.370;2023-03-01T06:04:10;21.77;;;13.20;;
61617;SDS011;47518;51.776;9.370;2023-03-01T06:06:48;22.53;;;13.77;;
61617;SDS011;47518;51.776;9.370;2023-03-01T06:09:16;22.40;;;13.47;;
61617;SDS011;47518;51.776;9.370;2023-03-01T06:51:04;32.63;;;15.70;;
61617;SDS011;47518;51.776;9.370;2023-03-01T06:53:35;25.60;;;14.97;;
61617;SDS011;47518;51.776;9.370;2023-03-01T06:56:01;27.47;;;14.87;;
61617;SDS011;47518;51.776;9.370;2023-03-01T06:58:35;28.87;;;15.50;;
61617;SDS011;47518;51.776;9.370;2023-03-01T07:01:05;32.00;;;15.60;;
61617;SDS011;47518;51.776;9.370;2023-03-01T07:03:31;28.53;;;17.03;;
61617;SDS011;47518;51.776;9.370;2023-03-01T07:05:57;25.47;;;15.83;;
61617;SDS011;47518;51.776;9.370;2023-03-01T07:09:02;30.67;;;16.20;;
61617;SDS011;47518;51.776;9.370;2023-03-01T07:11:28;29.10;;;13.37;;
61617;SDS011;47518;51.776;9.370;2023-03-01T07:13:59;28.10;;;13.53;;
61617;SDS011;47518;51.776;9.370;2023-03-01T07:16:30;24.53;;;13.50;;
61617;SDS011;47518;51.776;9.370;2023-03-01T07:19:09;23.33;;;13.47;;
61617;SDS011;47518;51.776;9.370;2023-03-01T07:24:53;21.50;;;12.50;;
61617;SDS011;47518;51.776;9.370;2023-03-01T07:31:17;20.00;;;12.53;;
61617;SDS011;47518;51.776;9.370;2023-03-01T07:33:53;18.37;;;12.03;;
61617;SDS011;47518;51.776;9.370;2023-03-01T07:36:32;19.57;;;12.47;;
61617;SDS011;47518;51.776;9.370;2023-03-01T07:39:22;25.38;;;12.93;;
61617;SDS011;47518;51.776;9.370;2023-03-01T07:41:51;20.77;;;12.47;;
61617;SDS011;47518;51.776;9.370;2023-03-01T07:44:21;21.63;;;13.10;;
61617;SDS011;47518;51.776;9.370;2023-03-01T07:46:58;21.67;;;12.95;;
61617;SDS011;47518;51.776;9.370;2023-03-01T07:49:28;22.10;;;12.57;;
61617;SDS011;47518;51.776;9.370;2023-03-01T07:51:56;20.37;;;12.27;;
61617;SDS011;47518;51.776;9.370;2023-03-01T07:54:22;19.63;;;12.45;;
61617;SDS011;47518;51.776;9.370;2023-03-01T07:57:15;18.77;;;11.95;;
61617;SDS011;47518;51.776;9.370;2023-03-01T07:59:41;22.15;;;12.68;;
61617;SDS011;47518;51.776;9.370;2023-03-01T08:02:09;20.30;;;12.38;;
61617;SDS011;47518;51.776;9.370;2023-03-01T08:04:44;21.25;;;12.52;;
61617;SDS011;47518;51.776;9.370;2023-03-01T08:07:22;20.83;;;12.07;;
61617;SDS011;47518;51.776;9.370;2023-03-01T08:13:49;20.42;;;12.70;;
61617;SDS011;47518;51.776;9.370;2023-03-01T08:13:53;22.95;;;13.85;;
61617;SDS011;47518;51.776;9.370;2023-03-01T08:16:42;23.83;;;14.30;;
61617;SDS011;47518;51.776;9.370;2023-03-01T08:19:20;24.98;;;13.32;;
61617;SDS011;47518;51.776;9.370;2023-03-01T08:24:29;25.23;;;16.27;;
61617;SDS011;47518;51.776;9.370;2023-03-01T08:27:14;22.77;;;13.90;;
61617;SDS011;47518;51.776;9.370;2023-03-01T08:29:54;21.95;;;14.15;;
61617;SDS011;47518;51.776;9.370;2023-03-01T08:32:29;20.80;;;13.68;;
61617;SDS011;47518;51.776;9.370;2023-03-01T08:35:43;24.33;;;14.32;;
61617;SDS011;47518;51.776;9.370;2023-03-01T08:38:11;24.63;;;14.57;;
61617;SDS011;47518;51.776;9.370;2023-03-01T08:41:17;21.35;;;13.07;;
61617;SDS011;47518;51.776;9.370;2023-03-01T08:43:49;21.15;;;13.13;;
61617;SDS011;47518;51.776;9.370;2023-03-01T08:46:36;23.65;;;13.52;;
61617;SDS011;47518;51.776;9.370;2023-03-01T08:54:59;26.33;;;12.85;;
61617;SDS011;47518;51.776;9.370;2023-03-01T08:57:48;23.58;;;14.18;;
61617;SDS011;47518;51.776;9.370;2023-03-01T09:00:14;19.85;;;12.57;;
61617;SDS011;47518;51.776;9.370;2023-03-01T09:02:40;21.95;;;12.68;;
61617;SDS011;47518;51.776;9.370;2023-03-01T09:05:05;21.83;;;12.30;;
61617;SDS011;47518;51.776;9.370;2023-03-01T09:10:18;19.23;;;12.13;;
61617;SDS011;47518;51.776;9.370;2023-03-01T09:12:54;19.92;;;12.43;;
61617;SDS011;47518;51.776;9.370;2023-03-01T09:15:20;24.48;;;13.20;;
61617;SDS011;47518;51.776;9.370;2023-03-01T09:18:03;21.58;;;12.88;;
61617;SDS011;47518;51.776;9.370;2023-03-01T09:20:52;20.67;;;12.23;;
61617;SDS011;47518;51.776;9.370;2023-03-01T09:30:50;16.70;;;11.20;;
61617;SDS011;47518;51.776;9.370;2023-03-01T09:36:54;17.58;;;10.57;;
61617;SDS011;47518;51.776;9.370;2023-03-01T09:39:40;15.45;;;10.10;;
61617;SDS011;47518;51.776;9.370;2023-03-01T09:42:05;14.60;;;9.73;;
61617;SDS011;47518;51.776;9.370;2023-03-01T09:44:40;17.25;;;10.43;;
61617;SDS011;47518;51.776;9.370;2023-03-01T09:47:24;14.27;;;9.43;;
61617;SDS011;47518;51.776;9.370;2023-03-01T09:50:14;17.85;;;9.98;;
61617;SDS011;47518;51.776;9.370;2023-03-01T09:52:48;16.00;;;9.65;;
61617;SDS011;47518;51.776;9.370;2023-03-01T09:55:36;16.52;;;10.07;;
61617;SDS011;47518;51.776;9.370;2023-03-01T10:19:12;12.23;;;7.68;;
61617;SDS011;47518;51.776;9.370;2023-03-01T10:26:56;15.60;;;7.80;;
61617;SDS011;47518;51.776;9.370;2023-03-01T10:28:54;11.60;;;7.30;;
61617;SDS011;47518;51.776;9.370;2023-03-01T10:31:37;8.35;;;6.68;;
61617;SDS011;47518;51.776;9.370;2023-03-01T10:58:09;8.40;;;6.25;;
61617;SDS011;47518;51.776;9.370;2023-03-01T11:01:45;8.20;;;5.80;;
61617;SDS011;47518;51.776;9.370;2023-03-01T11:41:38;10.52;;;7.28;;
61617;SDS011;47518;51.776;9.370;2023-03-01T11:47:55;9.32;;;6.95;;
61617;SDS011;47518;51.776;9.370;2023-03-01T11:51:08;9.18;;;6.57;;
61617;SDS011;47518;51.776;9.370;2023-03-01T12:05:18;9.38;;;7.03;;
61617;SDS011;47518;51.776;9.370;2023-03-01T12:13:53;12.63;;;8.18;;
61617;SDS011;47518;51.776;9.370;2023-03-01T12:29:54;12.82;;;7.57;;
61617;SDS011;47518;51.776;9.370;2023-03-01T12:46:21;9.70;;;7.10;;
61617;SDS011;47518;51.776;9.370;2023-03-01T12:49:20;9.80;;;7.40;;
61617;SDS011;47518;51.776;9.370;2023-03-01T12:52:00;9.38;;;7.43;;
61617;SDS011;47518;51.776;9.370;2023-03-01T12:54:42;11.07;;;7.22;;
61617;SDS011;47518;51.776;9.370;2023-03-01T12:57:14;9.00;;;7.43;;
61617;SDS011;47518;51.776;9.370;2023-03-01T13:00:05;9.30;;;7.43;;
61617;SDS011;47518;51.776;9.370;2023-03-01T13:13:32;21.07;;;13.47;;
61617;SDS011;47518;51.776;9.370;2023-03-01T13:29:52;9.60;;;7.60;;
61617;SDS011;47518;51.776;9.370;2023-03-01T13:32:29;10.02;;;7.78;;
61617;SDS011;47518;51.776;9.370;2023-03-01T13:53:23;11.35;;;7.75;;
61617;SDS011;47518;51.776;9.370;2023-03-01T13:56:00;10.02;;;8.13;;
61617;SDS011;47518;51.776;9.370;2023-03-01T13:58:29;13.52;;;8.15;;
61617;SDS011;47518;51.776;9.370;2023-03-01T14:01:02;12.27;;;7.93;;
61617;SDS011;47518;51.776;9.370;2023-03-01T14:03:31;10.02;;;7.70;;
61617;SDS011;47518;51.776;9.370;2023-03-01T14:06:06;11.52;;;8.48;;
61617;SDS011;47518;51.776;9.370;2023-03-01T14:19:15;12.85;;;7.25;;
61617;SDS011;47518;51.776;9.370;2023-03-01T14:21:46;9.77;;;7.30;;
61617;SDS011;47518;51.776;9.370;2023-03-01T14:24:16;10.25;;;7.07;;
61617;SDS011;47518;51.776;9.370;2023-03-01T14:26:46;14.33;;;7.70;;
61617;SDS011;47518;51.776;9.370;2023-03-01T14:29:24;10.38;;;7.68;;
61617;SDS011;47518;51.776;9.370;2023-03-01T14:32:10;12.00;;;7.50;;
61617;SDS011;47518;51.776;9.370;2023-03-01T14:34:45;11.30;;;7.35;;
61617;SDS011;47518;51.776;9.370;2023-03-01T14:39:59;10.43;;;7.90;;
61617;SDS011;47518;51.776;9.370;2023-03-01T14:42:34;13.15;;;7.38;;
61617;SDS011;47518;51.776;9.370;2023-03-01T14:45:00;13.10;;;8.00;;
61617;SDS011;47518;51.776;9.370;2023-03-01T14:50:26;10.60;;;7.38;;
61617;SDS011;47518;51.776;9.370;2023-03-01T14:52:55;13.20;;;6.97;;
61617;SDS011;47518;51.776;9.370;2023-03-01T14:55:33;11.95;;;7.30;;
61617;SDS011;47518;51.776;9.370;2023-03-01T14:58:03;10.27;;;6.93;;
61617;SDS011;47518;51.776;9.370;2023-03-01T15:00:30;9.85;;;6.45;;
61617;SDS011;47518;51.776;9.370;2023-03-01T15:03:06;9.35;;;6.70;;
61617;SDS011;47518;51.776;9.370;2023-03-01T15:05:38;15.70;;;7.53;;
61617;SDS011;47518;51.776;9.370;2023-03-01T15:08:12;10.60;;;7.13;;
61617;SDS011;47518;51.776;9.370;2023-03-01T15:13:54;12.75;;;7.18;;
61617;SDS011;47518;51.776;9.370;2023-03-01T15:16:23;10.25;;;6.75;;
61617;SDS011;47518;51.776;9.370;2023-03-01T15:18:55;9.85;;;6.57;;
61617;SDS011;47518;51.776;9.370;2023-03-01T15:21:24;10.48;;;6.50;;
61617;SDS011;47518;51.776;9.370;2023-03-01T15:23:56;8.98;;;6.85;;
61617;SDS011;47518;51.776;9.370;2023-03-01T15:26:30;9.68;;;6.97;;
61617;SDS011;47518;51.776;9.370;2023-03-01T15:29:01;10.55;;;7.38;;
61617;SDS011;47518;51.776;9.370;2023-03-01T15:31:29;12.05;;;8.07;;
61617;SDS011;47518;51.776;9.370;2023-03-01T15:36:48;10.07;;;7.03;;
61617;SDS011;47518;51.776;9.370;2023-03-01T15:39:36;11.73;;;7.47;;
61617;SDS011;47518;51.776;9.370;2023-03-01T15:56:04;13.07;;;8.10;;
61617;SDS011;47518;51.776;9.370;2023-03-01T15:58:32;9.73;;;7.07;;
61617;SDS011;47518;51.776;9.370;2023-03-01T16:00:57;11.68;;;7.63;;
61617;SDS011;47518;51.776;9.370;2023-03-01T16:03:24;10.32;;;7.30;;
61617;SDS011;47518;51.776;9.370;2023-03-01T16:05:49;12.57;;;7.10;;
61617;SDS011;47518;51.776;9.370;2023-03-01T16:08:16;12.88;;;7.78;;
61617;SDS011;47518;51.776;9.370;2023-03-01T16:10:43;8.77;;;6.53;;
61617;SDS011;47518;51.776;9.370;2023-03-01T16:13:10;12.40;;;6.70;;
61617;SDS011;47518;51.776;9.370;2023-03-01T16:15:37;11.63;;;7.88;;
61617;SDS011;47518;51.776;9.370;2023-03-01T16:18:03;10.60;;;7.78;;
61617;SDS011;47518;51.776;9.370;2023-03-01T16:20:31;14.27;;;8.10;;
61617;SDS011;47518;51.776;9.370;2023-03-01T16:22:58;11.52;;;7.47;;
61617;SDS011;47518;51.776;9.370;2023-03-01T16:25:26;9.23;;;6.70;;
61617;SDS011;47518;51.776;9.370;2023-03-01T16:27:51;11.30;;;7.25;;
61617;SDS011;47518;51.776;9.370;2023-03-01T16:30:21;10.32;;;6.80;;
61617;SDS011;47518;51.776;9.370;2023-03-01T16:32:48;9.60;;;6.75;;
61617;SDS011;47518;51.776;9.370;2023-03-01T16:35:15;12.77;;;7.22;;
61617;SDS011;47518;51.776;9.370;2023-03-01T16:37:43;11.50;;;7.70;;
61617;SDS011;47518;51.776;9.370;2023-03-01T16:40:15;10.60;;;6.85;;
61617;SDS011;47518;51.776;9.370;2023-03-01T16:42:43;11.38;;;6.60;;
61617;SDS011;47518;51.776;9.370;2023-03-01T16:45:09;13.55;;;6.63;;
61617;SDS011;47518;51.776;9.370;2023-03-01T16:47:35;12.00;;;7.30;;
61617;SDS011;47518;51.776;9.370;2023-03-01T16:50:04;10.65;;;6.90;;
61617;SDS011;47518;51.776;9.370;2023-03-01T16:52:30;12.90;;;7.57;;
61617;SDS011;47518;51.776;9.370;2023-03-01T16:54:55;11.18;;;6.45;;
61617;SDS011;47518;51.776;9.370;2023-03-01T16:57:20;13.20;;;7.47;;
61617;SDS011;47518;51.776;9.370;2023-03-01T16:59:46;13.07;;;7.90;;
61617;SDS011;47518;51.776;9.370;2023-03-01T17:02:12;13.15;;;7.65;;
61617;SDS011;47518;51.776;9.370;2023-03-01T17:04:43;14.18;;;8.02;;
61617;SDS011;47518;51.776;9.370;2023-03-01T17:07:09;11.43;;;7.80;;
61617;SDS011;47518;51.776;9.370;2023-03-01T17:09:35;13.40;;;8.32;;
61617;SDS011;47518;51.776;9.370;2023-03-01T17:12:02;11.13;;;7.63;;
61617;SDS011;47518;51.776;9.370;2023-03-01T17:14:29;11.48;;;7.65;;
61617;SDS011;47518;51.776;9.370;2023-03-01T17:16:54;13.10;;;7.68;;
61617;SDS011;47518;51.776;9.370;2023-03-01T17:19:20;12.52;;;7.95;;
61617;SDS011;47518;51.776;9.370;2023-03-01T17:21:45;11.88;;;7.75;;
61617;SDS011;47518;51.776;9.370;2023-03-01T17:24:11;15.05;;;8.75;;
61617;SDS011;47518;51.776;9.370;2023-03-01T17:26:37;12.18;;;8.00;;
61617;SDS011;47518;51.776;9.370;2023-03-01T17:29:03;15.65;;;7.60;;
61617;SDS011;47518;51.776;9.370;2023-03-01T17:31:29;13.02;;;7.93;;
61617;SDS011;47518;51.776;9.370;2023-03-01T17:33:55;11.18;;;7.32;;
61617;SDS011;47518;51.776;9.370;2023-03-01T17:36:20;11.52;;;7.47;;
61617;SDS011;47518;51.776;9.370;2023-03-01T17:38:46;10.27;;;7.20;;
61617;SDS011;47518;51.776;9.370;2023-03-01T17:41:13;15.25;;;8.27;;
61617;SDS011;47518;51.776;9.370;2023-03-01T17:43:41;11.43;;;7.30;;
61617;SDS011;47518;51.776;9.370;2023-03-01T17:46:07;11.52;;;6.85;;
61617;SDS011;47518;51.776;9.370;2023-03-01T17:48:32;11.85;;;7.15;;
61617;SDS011;47518;51.776;9.370;2023-03-01T17:50:58;13.00;;;7.50;;
61617;SDS011;47518;51.776;9.370;2023-03-01T17:53:23;9.55;;;7.45;;
61617;SDS011;47518;51.776;9.370;2023-03-01T17:55:48;10.40;;;7.82;;
61617;SDS011;47518;51.776;9.370;2023-03-01T17:58:24;17.80;;;8.30;;
61617;SDS011;47518;51.776;9.370;2023-03-01T18:00:49;15.23;;;7.63;;
61617;SDS011;47518;51.776;9.370;2023-03-01T18:03:15;13.38;;;7.40;;
61617;SDS011;47518;51.776;9.370;2023-03-01T18:05:40;9.02;;;7.40;;
61617;SDS011;47518;51.776;9.370;2023-03-01T18:08:06;13.95;;;8.10;;
61617;SDS011;47518;51.776;9.370;2023-03-01T18:10:32;9.52;;;7.60;;
61617;SDS011;47518;51.776;9.370;2023-03-01T18:13:00;12.40;;;8.35;;
61617;SDS011;47518;51.776;9.370;2023-03-01T18:15:26;13.35;;;8.75;;
61617;SDS011;47518;51.776;9.370;2023-03-01T18:17:52;19.30;;;9.75;;
61617;SDS011;47518;51.776;9.370;2023-03-01T18:20:18;13.82;;;8.85;;
61617;SDS011;47518;51.776;9.370;2023-03-01T18:22:44;12.82;;;8.52;;
61617;SDS011;47518;51.776;9.370;2023-03-01T18:25:09;12.52;;;8.35;;
61617;SDS011;47518;51.776;9.370;2023-03-01T18:27:35;12.30;;;8.88;;
61617;SDS011;47518;51.776;9.370;2023-03-01T18:30:02;15.80;;;9.00;;
61617;SDS011;47518;51.776;9.370;2023-03-01T18:32:28;14.15;;;9.40;;
61617;SDS011;47518;51.776;9.370;2023-03-01T18:34:54;14.18;;;9.30;;
61617;SDS011;47518;51.776;9.370;2023-03-01T18:37:19;15.18;;;9.40;;
61617;SDS011;47518;51.776;9.370;2023-03-01T18:39:45;12.52;;;8.30;;
61617;SDS011;47518;51.776;9.370;2023-03-01T18:42:10;16.52;;;9.45;;
61617;SDS011;47518;51.776;9.370;2023-03-01T18:44:35;15.45;;;9.88;;
61617;SDS011;47518;51.776;9.370;2023-03-01T18:47:02;14.18;;;8.50;;
61617;SDS011;47518;51.776;9.370;2023-03-01T18:49:28;12.70;;;8.52;;
61617;SDS011;47518;51.776;9.370;2023-03-01T18:51:54;12.65;;;8.48;;
61617;SDS011;47518;51.776;9.370;2023-03-01T18:54:19;11.38;;;8.02;;
61617;SDS011;47518;51.776;9.370;2023-03-01T18:56:45;12.85;;;8.10;;
61617;SDS011;47518;51.776;9.370;2023-03-01T18:59:10;11.95;;;8.73;;
61617;SDS011;47518;51.776;9.370;2023-03-01T19:01:36;13.40;;;8.02;;
61617;SDS011;47518;51.776;9.370;2023-03-01T19:04:05;13.02;;;8.50;;
61617;SDS011;47518;51.776;9.370;2023-03-01T19:06:33;13.80;;;8.73;;
61617;SDS011;47518;51.776;9.370;2023-03-01T19:09:10;14.02;;;9.07;;
61617;SDS011;47518;51.776;9.370;2023-03-01T19:11:36;13.82;;;8.48;;
61617;SDS011;47518;51.776;9.370;2023-03-01T19:14:02;11.77;;;8.10;;
61617;SDS011;47518;51.776;9.370;2023-03-01T19:16:29;12.57;;;8.60;;
61617;SDS011;47518;51.776;9.370;2023-03-01T19:18:57;13.80;;;8.88;;
61617;SDS011;47518;51.776;9.370;2023-03-01T19:21:26;14.45;;;8.07;;
61617;SDS011;47518;51.776;9.370;2023-03-01T19:23:54;15.50;;;9.63;;
61617;SDS011;47518;51.776;9.370;2023-03-01T19:26:22;14.82;;;9.48;;
61617;SDS011;47518;51.776;9.370;2023-03-01T19:28:49;15.10;;;10.10;;
61617;SDS011;47518;51.776;9.370;2023-03-01T19:31:15;16.25;;;10.43;;
61617;SDS011;47518;51.776;9.370;2023-03-01T19:33:43;16.20;;;11.02;;
61617;SDS011;47518;51.776;9.370;2023-03-01T19:36:10;15.88;;;10.90;;
61617;SDS011;47518;51.776;9.370;2023-03-01T19:38:37;14.77;;;9.50;;
61617;SDS011;47518;51.776;9.370;2023-03-01T19:41:04;14.68;;;9.43;;
61617;SDS011;47518;51.776;9.370;2023-03-01T19:43:31;13.90;;;10.05;;
61617;SDS011;47518;51.776;9.370;2023-03-01T19:45:57;16.00;;;10.13;;
61617;SDS011;47518;51.776;9.370;2023-03-01T19:48:23;14.75;;;9.63;;
61617;SDS011;47518;51.776;9.370;2023-03-01T19:50:50;16.10;;;10.75;;
61617;SDS011;47518;51.776;9.370;2023-03-01T19:53:16;28.92;;;19.30;;
61617;SDS011;47518;51.776;9.370;2023-03-01T19:55:42;19.42;;;13.27;;
61617;SDS011;47518;51.776;9.370;2023-03-01T19:58:08;19.58;;;12.43;;
61617;SDS011;47518;51.776;9.370;2023-03-01T20:00:37;17.42;;;10.52;;
61617;SDS011;47518;51.776;9.370;2023-03-01T20:03:03;15.77;;;9.90;;
61617;SDS011;47518;51.776;9.370;2023-03-01T20:05:31;15.88;;;10.80;;
61617;SDS011;47518;51.776;9.370;2023-03-01T20:07:57;15.05;;;9.95;;
61617;SDS011;47518;51.776;9.370;2023-03-01T20:10:27;15.05;;;9.95;;
61617;SDS011;47518;51.776;9.370;2023-03-01T20:12:54;15.52;;;9.45;;
61617;SDS011;47518;51.776;9.370;2023-03-01T20:15:19;15.00;;;10.00;;